createdAt,value
2022-12-11T00:00:29.760Z,69.54
2022-12-11T00:02:57.083Z,69.48
2022-12-11T00:05:24.325Z,69.42
2022-12-11T00:07:51.295Z,69.47
2022-12-11T00:10:18.321Z,69.49
2022-12-11T00:12:45.176Z,69.57
2022-12-11T00:15:12.515Z,69.46
2022-12-11T00:20:34.518Z,69.42
2022-12-11T00:23:01.732Z,69.37
2022-12-11T00:25:28.871Z,69.67
2022-12-11T00:27:56.106Z,69.59
2022-12-11T00:30:23.088Z,69.68
2022-12-11T00:32:52.270Z,69.77
2022-12-11T00:35:19.371Z,69.73
2022-12-11T00:37:46.263Z,69.74
2022-12-11T00:40:13.240Z,69.84
2022-12-11T00:42:40.092Z,69.77
2022-12-11T00:45:07.809Z,69.94
2022-12-11T00:47:34.886Z,69.74
2022-12-11T00:50:01.739Z,69.82
2022-12-11T00:52:28.635Z,69.98
2022-12-11T00:54:55.660Z,69.96
2022-12-11T00:57:22.708Z,69.65
2022-12-11T00:59:50.104Z,69.65
2022-12-11T01:02:17.004Z,69.58
2022-12-11T01:04:44.637Z,69.43
2022-12-11T01:07:11.558Z,69.49
2022-12-11T01:09:56.901Z,69.48
2022-12-11T01:12:23.963Z,69.54
2022-12-11T01:14:51.269Z,69.49
2022-12-11T01:17:18.149Z,69.56
2022-12-11T01:19:45.218Z,69.39
2022-12-11T01:22:12.108Z,69.59
2022-12-11T01:24:38.914Z,69.64
2022-12-11T01:27:05.722Z,69.66
2022-12-11T01:29:34.306Z,69.72
2022-12-11T01:32:01.131Z,69.69
2022-12-11T01:34:31.557Z,69.79
2022-12-11T01:36:58.423Z,69.75
2022-12-11T01:39:25.428Z,69.62
2022-12-11T01:41:58.486Z,69.75
2022-12-11T01:44:25.248Z,69.61
2022-12-11T01:46:53.337Z,69.49
2022-12-11T01:49:23.520Z,69.51
2022-12-11T01:52:01.943Z,69.52
2022-12-11T01:54:30.388Z,69.51
2022-12-11T01:57:04.712Z,69.72
2022-12-11T01:59:35.622Z,69.54
2022-12-11T02:02:18.175Z,69.71
2022-12-11T02:04:46.476Z,69.86
2022-12-11T02:07:13.503Z,69.71
2022-12-11T02:09:42.985Z,69.75
2022-12-11T02:12:26.421Z,69.62
2022-12-11T02:15:21.300Z,69.74
2022-12-11T02:17:53.176Z,69.60
2022-12-11T02:20:54.550Z,69.73
2022-12-11T02:23:27.815Z,69.82
2022-12-11T02:26:13.072Z,69.91
2022-12-11T02:28:52.263Z,69.82
2022-12-11T02:31:27.932Z,70.08
2022-12-11T02:34:13.214Z,69.93
2022-12-11T02:36:45.247Z,69.86
2022-12-11T02:39:15.803Z,69.74
2022-12-11T02:41:46.863Z,69.90
2022-12-11T02:44:17.281Z,69.88
2022-12-11T02:46:44.788Z,69.87
2022-12-11T02:49:13.898Z,70.06
2022-12-11T02:51:42.735Z,69.99
2022-12-11T02:54:16.213Z,69.96
2022-12-11T02:56:51.051Z,69.83
2022-12-11T02:59:29.180Z,69.93
2022-12-11T03:01:56.264Z,69.92
2022-12-11T03:04:25.195Z,70.01
2022-12-11T03:06:56.605Z,70.13
2022-12-11T03:09:23.786Z,70.22
2022-12-11T03:11:50.592Z,70.12
2022-12-11T03:14:17.571Z,70.16
2022-12-11T03:17:14.551Z,70.07
2022-12-11T03:19:55.906Z,69.92
2022-12-11T03:22:34.097Z,70.13
2022-12-11T03:25:32.616Z,70.08
2022-12-11T03:28:22.342Z,70.10
2022-12-11T03:30:51.588Z,70.24
2022-12-11T03:33:27.401Z,70.28
2022-12-11T03:35:59.511Z,70.35
2022-12-11T03:38:39.183Z,70.38
2022-12-11T03:41:08.199Z,70.22
2022-12-11T03:43:36.010Z,70.18
2022-12-11T03:46:03.474Z,70.12
2022-12-11T03:48:33.857Z,70.03
2022-12-11T03:51:04.550Z,70.06
2022-12-11T03:53:33.732Z,70.06
2022-12-11T03:56:02.101Z,70.08
2022-12-11T03:58:29.217Z,70.16
2022-12-11T04:00:56.359Z,70.09
2022-12-11T04:03:23.263Z,70.25
2022-12-11T04:05:52.969Z,70.16
2022-12-11T04:08:21.659Z,70.15
2022-12-11T04:11:10.196Z,70.09
2022-12-11T04:13:37.614Z,70.27
2022-12-11T04:16:04.596Z,70.14
2022-12-11T04:18:49.791Z,70.20
2022-12-11T04:21:39.489Z,70.13
2022-12-11T04:24:16.691Z,70.29
2022-12-11T04:26:45.709Z,70.36
2022-12-11T04:29:13.289Z,70.24
2022-12-11T04:31:40.312Z,70.27
2022-12-11T04:34:07.260Z,70.32
2022-12-11T04:36:34.603Z,70.23
2022-12-11T04:39:01.414Z,70.33
2022-12-11T04:41:29.087Z,70.30
2022-12-11T04:43:55.883Z,70.29
2022-12-11T04:46:24.390Z,70.41
2022-12-11T04:48:57.099Z,70.43
2022-12-11T04:51:25.031Z,70.44
2022-12-11T04:53:52.031Z,70.37
2022-12-11T04:56:18.997Z,70.29
2022-12-11T04:58:46.803Z,70.47
2022-12-11T05:01:16.614Z,70.43
2022-12-11T05:03:43.676Z,70.52
2022-12-11T05:06:11.557Z,70.55
2022-12-11T05:08:40.630Z,70.48
2022-12-11T05:11:09.986Z,70.54
2022-12-11T05:13:37.638Z,70.53
2022-12-11T05:16:06.206Z,70.47
2022-12-11T05:18:33.261Z,70.55
2022-12-11T05:21:06.182Z,70.49
2022-12-11T05:23:33.326Z,70.72
2022-12-11T05:26:03.522Z,70.70
2022-12-11T05:28:36.147Z,70.65
2022-12-11T05:31:08.847Z,70.61
2022-12-11T05:33:35.835Z,70.48
2022-12-11T05:36:03.425Z,70.55
2022-12-11T05:38:30.663Z,70.83
2022-12-11T05:41:04.865Z,70.66
2022-12-11T05:43:33.540Z,70.56
2022-12-11T05:46:14.961Z,70.66
2022-12-11T05:48:42.726Z,70.84
2022-12-11T05:51:09.940Z,70.67
2022-12-11T05:53:38.269Z,70.56
2022-12-11T05:56:16.406Z,70.81
2022-12-11T05:58:44.988Z,70.80
2022-12-11T06:01:28.264Z,70.78
2022-12-11T06:03:56.080Z,70.78
2022-12-11T06:06:23.945Z,70.67
2022-12-11T06:08:51.705Z,70.70
2022-12-11T06:11:23.784Z,70.69
2022-12-11T06:13:52.386Z,70.58
2022-12-11T06:16:20.156Z,70.69
2022-12-11T06:18:48.038Z,70.77
2022-12-11T06:21:19.028Z,70.77
2022-12-11T06:23:47.485Z,70.53
2022-12-11T06:26:15.191Z,70.67
2022-12-11T06:28:42.113Z,70.65
2022-12-11T06:31:09.005Z,70.49
2022-12-11T06:33:36.333Z,70.53
2022-12-11T06:36:16.279Z,70.60
2022-12-11T06:38:43.820Z,70.77
2022-12-11T06:41:11.414Z,70.78
2022-12-11T06:43:40.327Z,70.70
2022-12-11T06:46:10.069Z,70.78
2022-12-11T06:48:37.065Z,70.76
2022-12-11T06:51:12.689Z,70.73
2022-12-11T06:53:40.235Z,70.67
2022-12-11T06:56:10.269Z,70.75
2022-12-11T06:58:37.868Z,70.80
2022-12-11T07:01:13.620Z,70.70
2022-12-11T07:03:41.529Z,70.90
2022-12-11T07:06:08.879Z,71.00
2022-12-11T07:08:36.157Z,71.02
2022-12-11T07:11:05.693Z,71.16
2022-12-11T07:13:33.008Z,71.01
2022-12-11T07:16:02.066Z,71.04
2022-12-11T07:18:29.204Z,70.93
2022-12-11T07:20:59.158Z,71.12
2022-12-11T07:23:28.663Z,71.21
2022-12-11T07:25:56.413Z,71.18
2022-12-11T07:28:23.432Z,71.33
2022-12-11T07:30:50.385Z,71.21
2022-12-11T07:33:17.395Z,71.02
2022-12-11T07:35:44.423Z,71.21
2022-12-11T07:38:11.805Z,71.16
2022-12-11T07:40:38.616Z,71.21
2022-12-11T07:43:05.473Z,71.20
2022-12-11T07:45:32.530Z,71.32
2022-12-11T07:47:59.737Z,71.30
2022-12-11T07:50:26.551Z,71.31
2022-12-11T07:52:53.559Z,71.16
2022-12-11T07:55:20.399Z,71.13
2022-12-11T07:57:47.333Z,71.12
2022-12-11T08:00:14.911Z,71.15
2022-12-11T08:02:42.145Z,71.07
2022-12-11T08:05:09.355Z,71.09
2022-12-11T08:07:36.447Z,71.00
2022-12-11T08:10:04.901Z,71.11
2022-12-11T08:12:31.747Z,71.22
2022-12-11T08:14:58.575Z,71.21
2022-12-11T08:17:29.557Z,71.23
2022-12-11T08:19:57.937Z,71.08
2022-12-11T08:22:24.800Z,70.99
2022-12-11T08:24:51.832Z,71.07
2022-12-11T08:27:18.777Z,71.15
2022-12-11T08:29:47.824Z,71.28
2022-12-11T08:32:16.879Z,71.35
2022-12-11T08:34:46.038Z,71.33
2022-12-11T08:37:13.809Z,71.34
2022-12-11T08:39:40.729Z,71.39
2022-12-11T08:42:07.796Z,71.54
2022-12-11T08:44:35.843Z,71.34
2022-12-11T08:47:03.009Z,71.53
2022-12-11T08:49:34.353Z,71.46
2022-12-11T08:52:03.576Z,71.60
2022-12-11T08:54:30.543Z,71.55
2022-12-11T08:56:58.431Z,71.44
2022-12-11T08:59:25.951Z,71.51
2022-12-11T09:01:55.363Z,71.51
2022-12-11T09:04:23.822Z,71.45
2022-12-11T09:06:50.677Z,71.25
2022-12-11T09:09:20.625Z,71.34
2022-12-11T09:11:48.105Z,71.15
2022-12-11T09:14:16.188Z,71.33
2022-12-11T09:16:43.576Z,71.23
2022-12-11T09:19:14.433Z,71.29
2022-12-11T09:21:42.971Z,71.32
2022-12-11T09:24:11.975Z,71.36
2022-12-11T09:26:39.519Z,71.22
2022-12-11T09:29:07.477Z,71.29
2022-12-11T09:31:36.462Z,71.33
2022-12-11T09:34:06.766Z,71.32
2022-12-11T09:36:34.965Z,71.04
2022-12-11T09:39:04.735Z,71.16
2022-12-11T09:41:55.129Z,71.03
2022-12-11T09:44:42.531Z,70.85
2022-12-11T09:47:36.218Z,70.90
2022-12-11T09:50:09.081Z,70.93
2022-12-11T09:52:35.944Z,70.83
2022-12-11T09:55:19.843Z,70.92
2022-12-11T09:58:22.402Z,71.06
2022-12-11T10:01:18.100Z,71.23
2022-12-11T10:04:09.808Z,71.03
2022-12-11T10:07:04.112Z,70.94
2022-12-11T10:09:34.082Z,70.98
2022-12-11T10:12:15.054Z,71.00
2022-12-11T10:15:00.837Z,70.83
2022-12-11T10:17:37.253Z,70.84
2022-12-11T10:20:19.016Z,71.12
2022-12-11T10:22:47.046Z,71.18
2022-12-11T10:25:31.701Z,71.37
2022-12-11T10:28:00.556Z,71.32
2022-12-11T10:30:37.754Z,71.34
2022-12-11T10:33:19.881Z,71.45
2022-12-11T10:35:56.040Z,71.76
2022-12-11T10:38:33.779Z,71.92
2022-12-11T10:41:11.866Z,71.72
2022-12-11T10:43:47.077Z,71.59
2022-12-11T10:46:20.662Z,71.66
2022-12-11T10:48:53.617Z,71.60
2022-12-11T10:51:24.758Z,71.46
2022-12-11T10:54:06.879Z,71.39
2022-12-11T10:56:37.582Z,71.82
2022-12-11T10:59:05.064Z,72.17
2022-12-11T11:01:33.250Z,72.47
2022-12-11T11:04:01.077Z,72.48
2022-12-11T11:06:28.083Z,72.31
2022-12-11T11:08:58.232Z,72.12
2022-12-11T11:11:27.208Z,71.91
2022-12-11T11:14:23.339Z,70.51
2022-12-11T11:16:52.889Z,70.45
2022-12-11T11:19:24.776Z,70.16
2022-12-11T11:21:55.254Z,70.26
2022-12-11T11:24:30.044Z,69.94
2022-12-11T11:27:13.261Z,69.97
2022-12-11T11:29:42.090Z,69.98
2022-12-11T11:32:20.325Z,69.93
2022-12-11T11:34:47.212Z,69.76
2022-12-11T11:37:34.762Z,69.26
2022-12-11T11:40:38.688Z,68.93
2022-12-11T11:43:15.833Z,68.60
2022-12-11T11:46:01.248Z,68.34
2022-12-11T11:48:40.547Z,68.31
2022-12-11T11:51:15.445Z,68.36
2022-12-11T11:53:47.583Z,68.13
2022-12-11T11:56:21.634Z,68.12
2022-12-11T11:58:57.715Z,68.34
2022-12-11T12:01:25.020Z,68.39
2022-12-11T12:03:52.876Z,68.26
2022-12-11T12:06:50.719Z,68.12
2022-12-11T12:09:26.436Z,67.98
2022-12-11T12:12:19.413Z,67.69
2022-12-11T12:14:58.929Z,67.86
2022-12-11T12:21:23.026Z,68.11
2022-12-11T12:24:20.782Z,68.10
2022-12-11T12:27:01.867Z,68.18
2022-12-11T12:29:48.987Z,68.25
2022-12-11T12:32:36.852Z,68.05
2022-12-11T12:35:10.855Z,68.10
2022-12-11T12:38:09.669Z,68.09
2022-12-11T12:41:05.652Z,68.26
2022-12-11T12:43:35.719Z,68.17
2022-12-11T12:46:15.754Z,68.20
2022-12-11T12:48:42.790Z,68.31
2022-12-11T12:51:14.236Z,68.24
2022-12-11T12:53:47.332Z,67.89
2022-12-11T12:56:15.727Z,68.01
2022-12-11T12:58:45.446Z,68.01
2022-12-11T13:01:13.131Z,68.00
2022-12-11T13:03:53.996Z,68.09
2022-12-11T13:06:42.104Z,67.90
2022-12-11T13:09:12.203Z,68.00
2022-12-11T13:11:40.361Z,67.73
2022-12-11T13:14:24.183Z,67.53
2022-12-11T13:17:04.380Z,67.73
2022-12-11T13:19:42.105Z,67.72
2022-12-11T13:22:12.624Z,67.76
2022-12-11T13:25:19.668Z,67.73
2022-12-11T13:27:52.635Z,67.69
2022-12-11T13:30:19.533Z,67.45
2022-12-11T13:33:03.278Z,67.46
2022-12-11T13:35:32.188Z,67.62
2022-12-11T13:38:17.286Z,67.41
2022-12-11T13:40:47.004Z,67.48
2022-12-11T13:43:25.125Z,67.26
2022-12-11T13:45:59.152Z,67.11
2022-12-11T13:48:30.099Z,67.03
2022-12-11T13:51:00.352Z,66.97
2022-12-11T13:53:28.252Z,66.83
2022-12-11T13:56:09.692Z,66.77
2022-12-11T13:58:41.396Z,66.95
2022-12-11T14:01:16.719Z,66.74
2022-12-11T14:04:05.013Z,66.65
2022-12-11T14:06:33.628Z,66.50
2022-12-11T14:09:01.970Z,66.34
2022-12-11T14:11:34.533Z,66.13
2022-12-11T14:14:06.767Z,66.21
2022-12-11T14:16:34.451Z,66.18
2022-12-11T14:19:16.576Z,66.00
2022-12-11T14:21:55.821Z,66.20
2022-12-11T14:24:23.467Z,66.02
2022-12-11T14:26:52.453Z,66.02
2022-12-11T14:29:27.248Z,65.80
2022-12-11T14:31:55.122Z,65.96
2022-12-11T14:34:28.749Z,65.79
2022-12-11T14:36:57.190Z,65.65
2022-12-11T14:39:37.999Z,65.67
2022-12-11T14:42:14.984Z,65.53
2022-12-11T14:44:55.919Z,65.54
2022-12-11T14:47:29.284Z,65.34
2022-12-11T14:50:08.734Z,65.45
2022-12-11T14:52:43.215Z,65.31
2022-12-11T14:55:14.620Z,65.29
2022-12-11T14:57:46.625Z,65.27
2022-12-11T15:00:48.099Z,65.43
2022-12-11T15:03:24.675Z,65.35
2022-12-11T15:05:56.635Z,65.36
2022-12-11T15:08:35.384Z,65.21
2022-12-11T15:11:12.772Z,65.24
2022-12-11T15:13:59.023Z,65.24
2022-12-11T15:16:32.025Z,65.13
2022-12-11T15:18:59.879Z,65.15
2022-12-11T15:21:36.099Z,65.27
2022-12-11T15:24:05.847Z,65.19
2022-12-11T15:26:40.563Z,65.41
2022-12-11T15:29:26.812Z,65.14
2022-12-11T15:32:08.205Z,65.34
2022-12-11T15:34:42.156Z,65.27
2022-12-11T15:37:23.060Z,65.36
2022-12-11T15:39:51.200Z,65.49
2022-12-11T15:42:42.117Z,65.29
2022-12-11T15:45:18.953Z,65.51
2022-12-11T15:47:48.705Z,65.42
2022-12-11T15:50:25.585Z,65.45
2022-12-11T15:52:54.179Z,65.57
2022-12-11T15:55:23.037Z,65.45
2022-12-11T15:57:56.030Z,65.32
2022-12-11T16:00:24.143Z,65.48
2022-12-11T16:02:52.276Z,65.36
2022-12-11T16:05:20.073Z,65.46
2022-12-11T16:07:47.842Z,65.62
2022-12-11T16:10:19.361Z,65.56
2022-12-11T16:12:51.233Z,65.73
2022-12-11T16:15:28.230Z,65.57
2022-12-11T16:18:09.013Z,65.50
2022-12-11T16:20:37.849Z,65.49
2022-12-11T16:23:05.765Z,65.68
2022-12-11T16:25:33.089Z,65.62
2022-12-11T16:28:02.498Z,65.71
2022-12-11T16:30:30.148Z,65.61
2022-12-11T16:32:57.503Z,65.77
2022-12-11T16:35:24.890Z,65.76
2022-12-11T16:37:54.961Z,65.79
2022-12-11T16:40:22.674Z,65.92
2022-12-11T16:42:50.915Z,65.72
2022-12-11T16:45:23.760Z,65.81
2022-12-11T16:47:51.261Z,65.76
2022-12-11T16:50:20.354Z,65.80
2022-12-11T16:52:47.565Z,65.77
2022-12-11T16:55:15.320Z,65.74
2022-12-11T16:57:42.596Z,65.71
2022-12-11T17:00:12.862Z,65.74
2022-12-11T17:02:41.667Z,65.66
2022-12-11T17:05:08.939Z,65.66
2022-12-11T17:07:36.879Z,65.59
2022-12-11T17:10:04.642Z,65.62
2022-12-11T17:12:32.018Z,65.69
2022-12-11T17:15:01.608Z,65.77
2022-12-11T17:17:28.747Z,65.81
2022-12-11T17:19:56.013Z,65.91
2022-12-11T17:22:23.311Z,65.68
2022-12-11T17:24:50.357Z,65.82
2022-12-11T17:27:18.010Z,65.91
2022-12-11T17:29:45.032Z,65.96
2022-12-11T17:32:11.992Z,65.68
2022-12-11T17:34:38.964Z,65.71
2022-12-11T17:37:06.478Z,65.71
2022-12-11T17:39:34.027Z,65.85
2022-12-11T17:42:03.059Z,66.02
2022-12-11T17:44:31.339Z,65.99
2022-12-11T17:46:58.931Z,66.03
2022-12-11T17:49:26.659Z,66.09
2022-12-11T17:51:55.567Z,66.10
2022-12-11T17:54:24.030Z,66.02
2022-12-11T17:56:51.647Z,66.26
2022-12-11T17:59:18.743Z,66.32
2022-12-11T18:01:45.810Z,66.33
2022-12-11T18:04:13.281Z,66.38
2022-12-11T18:06:43.751Z,66.24
2022-12-11T18:09:11.480Z,66.37
2022-12-11T18:11:38.892Z,66.25
2022-12-11T18:14:08.420Z,66.39
2022-12-11T18:16:38.437Z,66.25
2022-12-11T18:19:06.578Z,66.43
2022-12-11T18:21:36.234Z,66.41
2022-12-11T18:24:05.290Z,66.42
2022-12-11T18:26:32.657Z,66.52
2022-12-11T18:28:59.548Z,66.66
2022-12-11T18:31:27.838Z,66.61
2022-12-11T18:33:55.016Z,66.78
2022-12-11T18:36:23.530Z,66.65
2022-12-11T18:38:51.703Z,66.60
2022-12-11T18:41:21.169Z,66.60
2022-12-11T18:43:50.291Z,66.60
2022-12-11T18:46:20.260Z,66.40
2022-12-11T18:48:50.577Z,66.29
2022-12-11T18:51:25.519Z,66.51
2022-12-11T18:53:52.863Z,66.28
2022-12-11T18:56:21.574Z,66.40
2022-12-11T18:58:50.943Z,66.55
2022-12-11T19:01:25.127Z,66.48
2022-12-11T19:04:02.393Z,66.51
2022-12-11T19:06:39.651Z,66.76
2022-12-11T19:09:16.514Z,66.71
2022-12-11T19:11:43.948Z,66.68
2022-12-11T19:14:16.764Z,66.53
2022-12-11T19:16:45.641Z,66.56
2022-12-11T19:19:16.508Z,66.53
2022-12-11T19:21:44.573Z,66.55
2022-12-11T19:24:15.997Z,66.43
2022-12-11T19:26:44.065Z,66.25
2022-12-11T19:29:19.912Z,66.08
2022-12-11T19:31:48.774Z,66.22
2022-12-11T19:34:16.451Z,65.94
2022-12-11T19:39:26.457Z,66.05
2022-12-11T19:41:54.060Z,66.20
2022-12-11T19:44:23.943Z,66.07
2022-12-11T19:46:53.063Z,66.12
2022-12-11T19:49:24.153Z,66.09
2022-12-11T19:51:52.797Z,66.12
2022-12-11T19:54:20.593Z,66.03
2022-12-11T19:56:50.271Z,66.04
2022-12-11T19:59:20.902Z,65.88
2022-12-11T20:01:50.866Z,65.87
2022-12-11T20:04:18.653Z,65.97
2022-12-11T20:06:49.669Z,65.88
2022-12-11T20:09:17.146Z,66.11
2022-12-11T20:11:46.611Z,65.73
2022-12-11T20:14:24.569Z,65.70
2022-12-11T20:17:12.757Z,65.51
2022-12-11T20:19:43.237Z,65.50
2022-12-11T20:22:10.742Z,65.40
2022-12-11T20:24:38.001Z,65.63
2022-12-11T20:27:08.172Z,65.45
2022-12-11T20:29:35.542Z,65.39
2022-12-11T20:32:03.020Z,65.54
2022-12-11T20:34:30.113Z,65.47
2022-12-11T20:36:57.336Z,65.44
2022-12-11T20:39:25.275Z,65.52
2022-12-11T20:41:53.302Z,65.69
2022-12-11T20:44:22.190Z,65.57
2022-12-11T20:46:51.498Z,65.56
2022-12-11T20:49:19.067Z,65.58
2022-12-11T20:51:46.298Z,65.62
2022-12-11T20:54:13.416Z,65.54
2022-12-11T20:56:40.395Z,65.63
2022-12-11T20:59:11.816Z,65.56
2022-12-11T21:01:43.400Z,65.46
2022-12-11T21:04:13.105Z,65.42
2022-12-11T21:06:40.841Z,65.54
2022-12-11T21:09:13.603Z,65.79
2022-12-11T21:11:42.070Z,65.57
2022-12-11T21:14:13.661Z,65.54
2022-12-11T21:16:43.831Z,65.43
2022-12-11T21:19:16.544Z,65.35
2022-12-11T21:21:45.405Z,65.38
2022-12-11T21:24:26.724Z,65.54
2022-12-11T21:26:56.054Z,65.49
2022-12-11T21:29:25.256Z,65.31
2022-12-11T21:31:52.544Z,65.41
2022-12-11T21:34:25.026Z,65.47
2022-12-11T21:36:56.883Z,65.19
2022-12-11T21:39:26.427Z,65.29
2022-12-11T21:41:53.425Z,65.28
2022-12-11T21:47:09.714Z,65.14
2022-12-11T21:49:37.952Z,64.87
2022-12-11T21:52:06.606Z,64.88
2022-12-11T21:54:34.288Z,65.00
2022-12-11T21:57:01.661Z,65.09
2022-12-11T21:59:29.347Z,65.28
2022-12-11T22:01:56.593Z,65.26
2022-12-11T22:04:23.954Z,65.32
2022-12-11T22:06:53.286Z,65.18
2022-12-11T22:09:21.773Z,65.17
2022-12-11T22:11:50.619Z,65.09
2022-12-11T22:14:21.965Z,65.19
2022-12-11T22:16:48.922Z,65.24
2022-12-11T22:19:18.649Z,65.16
2022-12-11T22:21:45.656Z,65.25
2022-12-11T22:24:12.762Z,65.18
2022-12-11T22:26:40.374Z,65.28
2022-12-11T22:29:07.591Z,65.33
2022-12-11T22:31:35.595Z,65.14
2022-12-11T22:34:02.968Z,64.87
2022-12-11T22:36:30.330Z,65.12
2022-12-11T22:38:57.660Z,65.04
2022-12-11T22:41:30.238Z,64.88
2022-12-11T22:44:00.099Z,64.92
2022-12-11T22:46:32.441Z,65.00
2022-12-11T22:48:59.976Z,65.09
2022-12-11T22:51:27.022Z,65.04
2022-12-11T22:53:53.931Z,64.88
2022-12-11T22:56:21.221Z,65.08
2022-12-11T22:58:48.169Z,65.07
2022-12-11T23:01:21.294Z,65.14
2022-12-11T23:03:48.845Z,65.13
2022-12-11T23:06:18.857Z,65.09
2022-12-11T23:08:47.265Z,65.08
2022-12-11T23:11:27.601Z,65.10
2022-12-11T23:13:55.231Z,65.16
2022-12-11T23:16:23.946Z,65.16
2022-12-11T23:18:51.945Z,64.91
2022-12-11T23:21:19.238Z,64.95
2022-12-11T23:23:47.035Z,65.09
2022-12-11T23:26:14.828Z,65.07
2022-12-11T23:28:42.534Z,65.45
2022-12-11T23:31:09.685Z,65.31
2022-12-11T23:33:37.197Z,65.39
2022-12-11T23:36:05.315Z,65.35
2022-12-11T23:38:32.997Z,65.18
2022-12-11T23:41:02.852Z,65.23
